sensor_id;sensor_type;location;lat;lon;timestamp;pressure;altitude;pressure_sealevel;temperature;humidity
30302;BME280;17111;52.130;5.028;2023-04-19T00:00:47;102906.06;;;18.20;46.41
30302;BME280;17111;52.130;5.028;2023-04-19T00:03:14;102914.13;;;18.20;46.45
30302;BME280;17111;52.130;5.028;2023-04-19T00:05:42;102914.25;;;18.19;46.13
30302;BME280;17111;52.130;5.028;2023-04-19T00:08:09;102907.16;;;18.18;46.00
30302;BME280;17111;52.130;5.028;2023-04-19T00:10:36;102909.84;;;18.18;46.09
30302;BME280;17111;52.130;5.028;2023-04-19T00:13:05;102905.41;;;18.17;46.05
30302;BME280;17111;52.130;5.028;2023-04-19T00:15:31;102904.47;;;18.18;45.93
30302;BME280;17111;52.130;5.028;2023-04-19T00:18:00;102904.56;;;18.16;46.32
30302;BME280;17111;52.130;5.028;2023-04-19T00:20:27;102902.84;;;18.15;46.29
30302;BME280;17111;52.130;5.028;2023-04-19T00:22:53;102902.00;;;18.15;45.97
30302;BME280;17111;52.130;5.028;2023-04-19T00:25:20;102903.81;;;18.14;46.27
30302;BME280;17111;52.130;5.028;2023-04-19T00:27:46;102902.00;;;18.15;45.94
30302;BME280;17111;52.130;5.028;2023-04-19T00:30:13;102910.16;;;18.13;45.90
30302;BME280;17111;52.130;5.028;2023-04-19T00:32:39;102903.06;;;18.12;46.35
30302;BME280;17111;52.130;5.028;2023-04-19T00:35:06;102904.03;;;18.11;46.59
30302;BME280;17111;52.130;5.028;2023-04-19T00:37:33;102900.47;;;18.11;46.33
30302;BME280;17111;52.130;5.028;2023-04-19T00:39:59;102898.78;;;18.10;45.99
30302;BME280;17111;52.130;5.028;2023-04-19T00:42:26;102896.94;;;18.10;46.15
30302;BME280;17111;52.130;5.028;2023-04-19T00:44:53;102902.41;;;18.09;46.27
30302;BME280;17111;52.130;5.028;2023-04-19T00:47:19;102903.28;;;18.09;46.25
30302;BME280;17111;52.130;5.028;2023-04-19T00:49:46;102895.31;;;18.08;46.31
30302;BME280;17111;52.130;5.028;2023-04-19T00:52:12;102895.31;;;18.08;46.35
30302;BME280;17111;52.130;5.028;2023-04-19T00:54:41;102894.47;;;18.07;46.28
30302;BME280;17111;52.130;5.028;2023-04-19T00:57:08;102898.13;;;18.06;46.47
30302;BME280;17111;52.130;5.028;2023-04-19T00:59:35;102898.97;;;18.07;46.18
30302;BME280;17111;52.130;5.028;2023-04-19T01:02:02;102894.56;;;18.06;46.13
30302;BME280;17111;52.130;5.028;2023-04-19T01:04:28;102893.72;;;18.05;46.08
30302;BME280;17111;52.130;5.028;2023-04-19T01:06:55;102895.50;;;18.05;46.53
30302;BME280;17111;52.130;5.028;2023-04-19T01:09:22;102892.94;;;18.03;46.41
30302;BME280;17111;52.130;5.028;2023-04-19T01:11:49;102885.88;;;18.02;46.32
30302;BME280;17111;52.130;5.028;2023-04-19T01:14:16;102891.25;;;18.02;46.34
30302;BME280;17111;52.130;5.028;2023-04-19T01:16:43;102891.31;;;18.00;46.41
30302;BME280;17111;52.130;5.028;2023-04-19T01:19:11;102887.78;;;18.00;46.31
30302;BME280;17111;52.130;5.028;2023-04-19T01:21:37;102886.06;;;17.99;46.56
30302;BME280;17111;52.130;5.028;2023-04-19T01:24:05;102885.22;;;17.98;46.58
30302;BME280;17111;52.130;5.028;2023-04-19T01:26:32;102885.22;;;17.98;45.99
30302;BME280;17111;52.130;5.028;2023-04-19T01:28:58;102886.19;;;17.97;46.48
30302;BME280;17111;52.130;5.028;2023-04-19T01:31:25;102881.75;;;17.96;46.14
30302;BME280;17111;52.130;5.028;2023-04-19T01:33:52;102890.78;;;17.95;46.29
30302;BME280;17111;52.130;5.028;2023-04-19T01:36:18;102883.69;;;17.94;46.19
30302;BME280;17111;52.130;5.028;2023-04-19T01:38:45;102882.84;;;17.94;46.10
30302;BME280;17111;52.130;5.028;2023-04-19T01:41:13;102880.25;;;17.92;46.43
30302;BME280;17111;52.130;5.028;2023-04-19T01:43:39;102882.94;;;17.92;46.11
30302;BME280;17111;52.130;5.028;2023-04-19T01:46:06;102880.38;;;17.91;46.23
30302;BME280;17111;52.130;5.028;2023-04-19T01:48:32;102874.69;;;17.95;46.25
30302;BME280;17111;52.130;5.028;2023-04-19T01:50:59;102876.97;;;18.02;46.15
30302;BME280;17111;52.130;5.028;2023-04-19T01:53:25;102877.31;;;18.10;46.43
30302;BME280;17111;52.130;5.028;2023-04-19T01:55:52;102871.41;;;18.17;46.03
30302;BME280;17111;52.130;5.028;2023-04-19T01:58:19;102870.84;;;18.25;45.96
30302;BME280;17111;52.130;5.028;2023-04-19T02:00:45;102875.63;;;18.34;45.33
30302;BME280;17111;52.130;5.028;2023-04-19T02:03:12;102880.53;;;18.40;45.53
30302;BME280;17111;52.130;5.028;2023-04-19T02:05:39;102881.19;;;18.44;45.64
30302;BME280;17111;52.130;5.028;2023-04-19T02:08:06;102873.78;;;18.47;45.33
30302;BME280;17111;52.130;5.028;2023-04-19T02:10:32;102874.44;;;18.51;45.44
30302;BME280;17111;52.130;5.028;2023-04-19T02:12:59;102871.53;;;18.54;45.28
30302;BME280;17111;52.130;5.028;2023-04-19T02:15:25;102878.63;;;18.55;45.06
30302;BME280;17111;52.130;5.028;2023-04-19T02:17:52;102871.31;;;18.57;45.18
30302;BME280;17111;52.130;5.028;2023-04-19T02:20:18;102875.72;;;18.58;45.23
30302;BME280;17111;52.130;5.028;2023-04-19T02:22:45;102872.94;;;18.60;45.07
30302;BME280;17111;52.130;5.028;2023-04-19T02:25:13;102874.56;;;18.62;44.89
30302;BME280;17111;52.130;5.028;2023-04-19T02:27:40;102872.72;;;18.63;44.94
30302;BME280;17111;52.130;5.028;2023-04-19T02:30:07;102871.88;;;18.62;44.92
30302;BME280;17111;52.130;5.028;2023-04-19T02:32:34;102871.88;;;18.62;45.12
30302;BME280;17111;52.130;5.028;2023-04-19T02:35:01;102881.63;;;18.63;44.84
30302;BME280;17111;52.130;5.028;2023-04-19T02:37:28;102871.75;;;18.64;45.00
30302;BME280;17111;52.130;5.028;2023-04-19T02:39:54;102868.97;;;18.65;45.12
30302;BME280;17111;52.130;5.028;2023-04-19T02:42:21;102877.97;;;18.64;44.93
30302;BME280;17111;52.130;5.028;2023-04-19T02:44:47;102870.88;;;18.63;44.95
30302;BME280;17111;52.130;5.028;2023-04-19T02:47:14;102875.50;;;18.61;44.83
30302;BME280;17111;52.130;5.028;2023-04-19T02:49:41;102882.81;;;18.59;45.17
30302;BME280;17111;52.130;5.028;2023-04-19T02:52:08;102882.03;;;18.57;45.27
30302;BME280;17111;52.130;5.028;2023-04-19T02:54:34;102882.28;;;18.54;45.21
30302;BME280;17111;52.130;5.028;2023-04-19T02:57:01;102881.53;;;18.52;45.29
30302;BME280;17111;52.130;5.028;2023-04-19T02:59:27;102881.00;;;18.47;44.98
30302;BME280;17111;52.130;5.028;2023-04-19T03:01:54;102886.69;;;18.42;44.55
30302;BME280;17111;52.130;5.028;2023-04-19T03:04:21;102889.78;;;18.36;45.49
30302;BME280;17111;52.130;5.028;2023-04-19T03:06:47;102886.56;;;18.31;45.45
30302;BME280;17111;52.130;5.028;2023-04-19T03:09:14;102879.81;;;18.25;45.17
30302;BME280;17111;52.130;5.028;2023-04-19T03:11:41;102881.84;;;18.22;45.50
30302;BME280;17111;52.130;5.028;2023-04-19T03:14:08;102875.03;;;18.16;45.83
30302;BME280;17111;52.130;5.028;2023-04-19T03:16:34;102870.97;;;18.11;46.07
30302;BME280;17111;52.130;5.028;2023-04-19T03:19:01;102876.66;;;18.06;46.01
30302;BME280;17111;52.130;5.028;2023-04-19T03:21:28;102876.00;;;18.03;45.97
30302;BME280;17111;52.130;5.028;2023-04-19T03:23:55;102874.47;;;17.98;45.93
30302;BME280;17111;52.130;5.028;2023-04-19T03:26:21;102870.28;;;17.94;46.19
30302;BME280;17111;52.130;5.028;2023-04-19T03:28:48;102870.47;;;17.91;46.28
30302;BME280;17111;52.130;5.028;2023-04-19T03:31:14;102869.75;;;17.89;46.05
30302;BME280;17111;52.130;5.028;2023-04-19T03:33:41;102872.50;;;17.88;46.01
30302;BME280;17111;52.130;5.028;2023-04-19T03:36:08;102864.56;;;17.86;46.66
30302;BME280;17111;52.130;5.028;2023-04-19T03:38:35;102868.31;;;17.84;46.42
30302;BME280;17111;52.130;5.028;2023-04-19T03:41:02;102860.28;;;17.84;46.24
30302;BME280;17111;52.130;5.028;2023-04-19T03:43:29;102868.31;;;17.84;46.62
30302;BME280;17111;52.130;5.028;2023-04-19T03:45:55;102858.56;;;17.83;46.52
30302;BME280;17111;52.130;5.028;2023-04-19T03:48:22;102863.91;;;17.83;46.33
30302;BME280;17111;52.130;5.028;2023-04-19T03:50:48;102867.34;;;17.85;46.47
30302;BME280;17111;52.130;5.028;2023-04-19T03:53:15;102864.66;;;17.85;46.04
30302;BME280;17111;52.130;5.028;2023-04-19T03:55:44;102874.47;;;17.86;46.65
30302;BME280;17111;52.130;5.028;2023-04-19T03:58:11;102867.16;;;17.88;46.40
30302;BME280;17111;52.130;5.028;2023-04-19T04:00:37;102871.53;;;17.89;46.06
30302;BME280;17111;52.130;5.028;2023-04-19T04:03:04;102869.75;;;17.89;45.93
30302;BME280;17111;52.130;5.028;2023-04-19T04:05:31;102873.38;;;17.88;46.33
30302;BME280;17111;52.130;5.028;2023-04-19T04:07:57;102873.38;;;17.88;46.45
30302;BME280;17111;52.130;5.028;2023-04-19T04:10:24;102878.66;;;17.90;45.91
30302;BME280;17111;52.130;5.028;2023-04-19T04:12:50;102868.84;;;17.89;46.20
30302;BME280;17111;52.130;5.028;2023-04-19T04:15:17;102880.47;;;17.89;46.23
30302;BME280;17111;52.130;5.028;2023-04-19T04:17:43;102872.50;;;17.88;46.58
30302;BME280;17111;52.130;5.028;2023-04-19T04:20:10;102873.38;;;17.88;46.47
30302;BME280;17111;52.130;5.028;2023-04-19T04:22:42;102872.50;;;17.88;46.38
30302;BME280;17111;52.130;5.028;2023-04-19T04:25:09;102877.03;;;17.87;46.11
30302;BME280;17111;52.130;5.028;2023-04-19T04:27:35;102876.16;;;17.87;46.35
30302;BME280;17111;52.130;5.028;2023-04-19T04:30:03;102870.81;;;17.87;46.08
30302;BME280;17111;52.130;5.028;2023-04-19T04:32:30;102872.63;;;17.86;46.15
30302;BME280;17111;52.130;5.028;2023-04-19T04:35:02;102872.81;;;17.83;46.02
30302;BME280;17111;52.130;5.028;2023-04-19T04:37:30;102869.28;;;17.83;46.35
30302;BME280;17111;52.130;5.028;2023-04-19T04:39:59;102875.72;;;17.80;46.01
30302;BME280;17111;52.130;5.028;2023-04-19T04:42:27;102880.00;;;17.83;46.19
30302;BME280;17111;52.130;5.028;2023-04-19T04:44:56;102875.97;;;17.90;46.03
30302;BME280;17111;52.130;5.028;2023-04-19T04:47:23;102874.38;;;18.00;46.09
30302;BME280;17111;52.130;5.028;2023-04-19T04:49:50;102875.56;;;18.09;45.55
30302;BME280;17111;52.130;5.028;2023-04-19T04:52:17;102868.72;;;18.17;45.46
30302;BME280;17111;52.130;5.028;2023-04-19T04:54:44;102872.59;;;18.26;45.80
30302;BME280;17111;52.130;5.028;2023-04-19T04:57:11;102874.00;;;18.32;45.70
30302;BME280;17111;52.130;5.028;2023-04-19T04:59:37;102871.75;;;18.38;45.18
30302;BME280;17111;52.130;5.028;2023-04-19T05:02:04;102869.72;;;18.42;45.43
30302;BME280;17111;52.130;5.028;2023-04-19T05:04:30;102869.38;;;18.46;45.19
30302;BME280;17111;52.130;5.028;2023-04-19T05:06:57;102879.03;;;18.49;44.90
30302;BME280;17111;52.130;5.028;2023-04-19T05:09:23;102878.84;;;18.52;45.06
30302;BME280;17111;52.130;5.028;2023-04-19T05:11:50;102867.03;;;18.55;45.17
30302;BME280;17111;52.130;5.028;2023-04-19T05:14:17;102878.50;;;18.57;44.76
30302;BME280;17111;52.130;5.028;2023-04-19T05:16:43;102872.06;;;18.59;44.96
30302;BME280;17111;52.130;5.028;2023-04-19T05:19:10;102875.41;;;18.63;44.77
30302;BME280;17111;52.130;5.028;2023-04-19T05:21:36;102880.56;;;18.66;44.83
30302;BME280;17111;52.130;5.028;2023-04-19T05:24:03;102877.75;;;18.67;44.70
30302;BME280;17111;52.130;5.028;2023-04-19T05:26:30;102882.97;;;18.70;44.69
30302;BME280;17111;52.130;5.028;2023-04-19T05:28:57;102883.69;;;18.72;44.40
30302;BME280;17111;52.130;5.028;2023-04-19T05:31:24;102893.50;;;18.73;44.47
30302;BME280;17111;52.130;5.028;2023-04-19T05:33:50;102896.91;;;18.76;44.69
30302;BME280;17111;52.130;5.028;2023-04-19T05:36:17;102890.56;;;18.77;44.77
30302;BME280;17111;52.130;5.028;2023-04-19T05:38:44;102895.84;;;18.78;44.87
30302;BME280;17111;52.130;5.028;2023-04-19T05:41:11;102896.59;;;18.80;44.62
30302;BME280;17111;52.130;5.028;2023-04-19T05:43:37;102895.59;;;18.81;44.99
30302;BME280;17111;52.130;5.028;2023-04-19T05:46:04;102890.25;;;18.81;44.78
30302;BME280;17111;52.130;5.028;2023-04-19T05:48:30;102887.56;;;18.81;44.41
30302;BME280;17111;52.130;5.028;2023-04-19T05:50:57;102891.13;;;18.82;44.51
30302;BME280;17111;52.130;5.028;2023-04-19T05:53:24;102885.75;;;18.82;44.84
30302;BME280;17111;52.130;5.028;2023-04-19T05:55:51;102881.13;;;18.84;44.60
30302;BME280;17111;52.130;5.028;2023-04-19T05:58:18;102878.44;;;18.84;44.44
30302;BME280;17111;52.130;5.028;2023-04-19T06:00:45;102883.69;;;18.85;44.22
30302;BME280;17111;52.130;5.028;2023-04-19T06:03:12;102882.63;;;18.88;43.68
30302;BME280;17111;52.130;5.028;2023-04-19T06:05:39;102886.16;;;18.88;43.85
30302;BME280;17111;52.130;5.028;2023-04-19T06:08:06;102885.09;;;18.91;43.86
30302;BME280;17111;52.130;5.028;2023-04-19T06:10:36;102883.38;;;18.90;44.14
30302;BME280;17111;52.130;5.028;2023-04-19T06:13:21;102888.75;;;18.90;44.21
30302;BME280;17111;52.130;5.028;2023-04-19T06:15:48;102884.44;;;18.87;44.38
30302;BME280;17111;52.130;5.028;2023-04-19T06:18:15;102881.88;;;18.86;44.39
30302;BME280;17111;52.130;5.028;2023-04-19T06:20:45;102882.72;;;18.86;44.31
30302;BME280;17111;52.130;5.028;2023-04-19T06:23:12;102889.81;;;18.87;44.29
30302;BME280;17111;52.130;5.028;2023-04-19T06:25:40;102881.63;;;18.89;44.54
30302;BME280;17111;52.130;5.028;2023-04-19T06:28:07;102888.75;;;18.90;44.68
30302;BME280;17111;52.130;5.028;2023-04-19T06:30:34;102886.69;;;18.93;44.00
30302;BME280;17111;52.130;5.028;2023-04-19T06:33:00;102887.56;;;18.94;44.79
30302;BME280;17111;52.130;5.028;2023-04-19T06:35:27;102886.47;;;18.96;44.88
30302;BME280;17111;52.130;5.028;2023-04-19T06:37:54;102892.59;;;18.98;44.58
30302;BME280;17111;52.130;5.028;2023-04-19T06:40:20;102882.59;;;19.01;44.35
30302;BME280;17111;52.130;5.028;2023-04-19T06:42:47;102885.19;;;19.02;44.10
30302;BME280;17111;52.130;5.028;2023-04-19T06:45:13;102885.91;;;19.04;44.04
30302;BME280;17111;52.130;5.028;2023-04-19T06:47:41;102879.56;;;19.05;44.32
30302;BME280;17111;52.130;5.028;2023-04-19T06:50:08;102884.84;;;19.07;44.00
30302;BME280;17111;52.130;5.028;2023-04-19T06:52:37;102885.56;;;19.09;44.00
30302;BME280;17111;52.130;5.028;2023-04-19T06:55:08;102891.81;;;19.09;44.00
30302;BME280;17111;52.130;5.028;2023-04-19T06:57:34;102891.72;;;19.11;44.22
30302;BME280;17111;52.130;5.028;2023-04-19T07:00:02;102887.19;;;19.11;43.62
30302;BME280;17111;52.130;5.028;2023-04-19T07:02:29;102895.13;;;19.13;43.27
30302;BME280;17111;52.130;5.028;2023-04-19T07:04:56;102894.28;;;19.12;42.97
30302;BME280;17111;52.130;5.028;2023-04-19T07:07:22;102893.31;;;19.13;43.14
30302;BME280;17111;52.130;5.028;2023-04-19T07:09:49;102887.06;;;19.13;42.35
30302;BME280;17111;52.130;5.028;2023-04-19T07:12:16;102896.00;;;19.13;42.17
30302;BME280;17111;52.130;5.028;2023-04-19T07:14:42;102894.19;;;19.14;42.72
30302;BME280;17111;52.130;5.028;2023-04-19T07:17:09;102899.56;;;19.14;42.33
30302;BME280;17111;52.130;5.028;2023-04-19T07:19:35;102894.28;;;19.12;42.29
30302;BME280;17111;52.130;5.028;2023-04-19T07:22:02;102889.88;;;19.11;41.69
30302;BME280;17111;52.130;5.028;2023-04-19T07:24:28;102887.19;;;19.11;42.12
30302;BME280;17111;52.130;5.028;2023-04-19T07:26:55;102877.31;;;19.12;42.23
30302;BME280;17111;52.130;5.028;2023-04-19T07:29:22;102886.22;;;19.12;41.55
30302;BME280;17111;52.130;5.028;2023-04-19T07:31:49;102891.59;;;19.12;41.79
30302;BME280;17111;52.130;5.028;2023-04-19T07:34:15;102893.44;;;19.12;41.76
30302;BME280;17111;52.130;5.028;2023-04-19T07:36:43;102880.97;;;19.11;41.92
30302;BME280;17111;52.130;5.028;2023-04-19T07:39:09;102887.31;;;19.10;41.95
30302;BME280;17111;52.130;5.028;2023-04-19T07:41:36;102882.88;;;19.09;41.76
30302;BME280;17111;52.130;5.028;2023-04-19T07:44:03;102887.41;;;19.08;41.46
30302;BME280;17111;52.130;5.028;2023-04-19T07:46:29;102890.22;;;19.07;41.79
30302;BME280;17111;52.130;5.028;2023-04-19T07:48:56;102888.59;;;19.04;41.94
30302;BME280;17111;52.130;5.028;2023-04-19T07:51:22;102887.88;;;19.02;41.63
30302;BME280;17111;52.130;5.028;2023-04-19T07:53:50;102887.00;;;19.02;41.48
30302;BME280;17111;52.130;5.028;2023-04-19T07:56:17;102884.31;;;19.02;41.43
30302;BME280;17111;52.130;5.028;2023-04-19T07:58:45;102881.63;;;19.02;41.56
30302;BME280;17111;52.130;5.028;2023-04-19T08:01:22;102882.50;;;19.02;41.79
30302;BME280;17111;52.130;5.028;2023-04-19T08:03:48;102880.88;;;18.99;41.77
30302;BME280;17111;52.130;5.028;2023-04-19T08:06:15;102881.84;;;18.98;41.31
30302;BME280;17111;52.130;5.028;2023-04-19T08:08:43;102878.31;;;18.98;41.49
30302;BME280;17111;52.130;5.028;2023-04-19T08:11:10;102881.00;;;18.98;41.79
30302;BME280;17111;52.130;5.028;2023-04-19T08:13:36;102881.94;;;18.97;41.88
30302;BME280;17111;52.130;5.028;2023-04-19T08:16:05;102883.78;;;18.96;42.14
30302;BME280;17111;52.130;5.028;2023-04-19T08:18:35;102882.81;;;18.97;42.04
30302;BME280;17111;52.130;5.028;2023-04-19T08:21:02;102881.00;;;18.98;41.97
30302;BME280;17111;52.130;5.028;2023-04-19T08:23:28;102882.81;;;18.97;41.81
30302;BME280;17111;52.130;5.028;2023-04-19T08:26:12;102886.25;;;18.99;41.98
30302;BME280;17111;52.130;5.028;2023-04-19T08:28:39;102873.78;;;18.98;42.11
30302;BME280;17111;52.130;5.028;2023-04-19T08:31:06;102871.97;;;18.99;41.87
30302;BME280;17111;52.130;5.028;2023-04-19T08:33:33;102882.50;;;19.02;42.00
30302;BME280;17111;52.130;5.028;2023-04-19T08:35:59;102877.13;;;19.02;41.69
30302;BME280;17111;52.130;5.028;2023-04-19T08:38:26;102879.69;;;19.04;41.88
30302;BME280;17111;52.130;5.028;2023-04-19T08:40:53;102879.47;;;19.07;41.57
30302;BME280;17111;52.130;5.028;2023-04-19T08:43:24;102864.94;;;19.09;41.43
30302;BME280;17111;52.130;5.028;2023-04-19T08:45:51;102865.69;;;19.11;41.61
30302;BME280;17111;52.130;5.028;2023-04-19T08:48:19;102870.84;;;19.14;41.39
30302;BME280;17111;52.130;5.028;2023-04-19T08:50:47;102880.50;;;19.17;41.00
30302;BME280;17111;52.130;5.028;2023-04-19T08:53:33;102866.00;;;19.19;40.77
30302;BME280;17111;52.130;5.028;2023-04-19T08:56:02;102865.00;;;19.20;40.24
30302;BME280;17111;52.130;5.028;2023-04-19T08:58:31;102861.25;;;19.23;40.88
30302;BME280;17111;52.130;5.028;2023-04-19T09:01:19;102864.59;;;19.27;41.14
30302;BME280;17111;52.130;5.028;2023-04-19T09:04:03;102863.47;;;19.29;40.99
30302;BME280;17111;52.130;5.028;2023-04-19T09:06:53;102857.88;;;19.32;41.13
30302;BME280;17111;52.130;5.028;2023-04-19T09:09:23;102860.47;;;19.34;41.70
30302;BME280;17111;52.130;5.028;2023-04-19T09:12:02;102873.66;;;19.37;42.06
30302;BME280;17111;52.130;5.028;2023-04-19T09:14:29;102867.22;;;19.39;41.82
30302;BME280;17111;52.130;5.028;2023-04-19T09:17:12;102885.69;;;19.44;41.73
30302;BME280;17111;52.130;5.028;2023-04-19T09:19:46;102866.75;;;19.45;42.39
30302;BME280;17111;52.130;5.028;2023-04-19T09:22:13;102859.31;;;19.49;42.58
30302;BME280;17111;52.130;5.028;2023-04-19T09:24:40;102855.41;;;19.53;41.97
30302;BME280;17111;52.130;5.028;2023-04-19T09:27:10;102861.56;;;19.55;42.23
30302;BME280;17111;52.130;5.028;2023-04-19T09:29:37;102861.22;;;19.60;41.83
30302;BME280;17111;52.130;5.028;2023-04-19T09:32:04;102856.63;;;19.62;41.85
30302;BME280;17111;52.130;5.028;2023-04-19T09:34:31;102859.81;;;19.67;42.30
30302;BME280;17111;52.130;5.028;2023-04-19T09:37:11;102854.09;;;19.71;41.78
30302;BME280;17111;52.130;5.028;2023-04-19T09:39:58;102856.19;;;19.79;41.92
30302;BME280;17111;52.130;5.028;2023-04-19T09:42:43;102853.16;;;19.84;42.34
30302;BME280;17111;52.130;5.028;2023-04-19T09:45:43;102846.34;;;19.91;42.38
30302;BME280;17111;52.130;5.028;2023-04-19T09:48:11;102855.66;;;19.98;42.09
30302;BME280;17111;52.130;5.028;2023-04-19T09:50:52;102847.22;;;20.03;41.74
30302;BME280;17111;52.130;5.028;2023-04-19T09:53:29;102852.03;;;20.10;41.47
30302;BME280;17111;52.130;5.028;2023-04-19T09:56:00;102852.53;;;20.15;41.46
30302;BME280;17111;52.130;5.028;2023-04-19T09:58:29;102842.25;;;20.20;41.47
30302;BME280;17111;52.130;5.028;2023-04-19T10:01:17;102854.41;;;20.26;41.37
30302;BME280;17111;52.130;5.028;2023-04-19T10:03:46;102853.06;;;20.32;41.60
30302;BME280;17111;52.130;5.028;2023-04-19T10:06:15;102859.78;;;20.37;41.71
30302;BME280;17111;52.130;5.028;2023-04-19T10:09:03;102863.00;;;20.42;41.02
30302;BME280;17111;52.130;5.028;2023-04-19T10:11:32;102850.00;;;20.48;41.29
30302;BME280;17111;52.130;5.028;2023-04-19T10:14:06;102855.91;;;20.53;40.93
30302;BME280;17111;52.130;5.028;2023-04-19T10:16:35;102861.78;;;20.58;41.52
30302;BME280;17111;52.130;5.028;2023-04-19T10:19:07;102847.97;;;20.62;41.12
30302;BME280;17111;52.130;5.028;2023-04-19T10:21:36;102842.22;;;20.67;40.86
30302;BME280;17111;52.130;5.028;2023-04-19T10:24:04;102841.00;;;20.71;40.80
30302;BME280;17111;52.130;5.028;2023-04-19T10:27:09;102844.31;;;20.75;41.43
30302;BME280;17111;52.130;5.028;2023-04-19T10:30:01;102839.41;;;20.80;41.19
30302;BME280;17111;52.130;5.028;2023-04-19T10:32:41;102834.47;;;20.85;41.35
30302;BME280;17111;52.130;5.028;2023-04-19T10:35:09;102836.94;;;20.88;40.92
30302;BME280;17111;52.130;5.028;2023-04-19T10:37:39;102833.00;;;20.92;40.93
30302;BME280;17111;52.130;5.028;2023-04-19T10:40:07;102827.25;;;20.97;40.70
30302;BME280;17111;52.130;5.028;2023-04-19T10:43:13;102833.38;;;20.99;40.59
30302;BME280;17111;52.130;5.028;2023-04-19T10:45:40;102828.47;;;21.04;40.72
30302;BME280;17111;52.130;5.028;2023-04-19T10:51:17;102814.34;;;21.11;40.38
30302;BME280;17111;52.130;5.028;2023-04-19T10:56:14;102828.31;;;21.16;40.46
30302;BME280;17111;52.130;5.028;2023-04-19T11:07:06;102810.75;;;21.33;40.17
30302;BME280;17111;52.130;5.028;2023-04-19T11:09:37;102818.59;;;21.36;39.99
30302;BME280;17111;52.130;5.028;2023-04-19T11:12:07;102804.03;;;21.39;40.31
30302;BME280;17111;52.130;5.028;2023-04-19T11:14:36;102807.44;;;21.41;40.05
30302;BME280;17111;52.130;5.028;2023-04-19T11:17:16;102799.09;;;21.44;40.15
30302;BME280;17111;52.130;5.028;2023-04-19T11:20:04;102789.84;;;21.47;39.56
30302;BME280;17111;52.130;5.028;2023-04-19T11:22:39;102794.00;;;21.51;39.90
30302;BME280;17111;52.130;5.028;2023-04-19T11:25:10;102798.31;;;21.53;39.65
30302;BME280;17111;52.130;5.028;2023-04-19T11:27:39;102791.66;;;21.57;39.66
30302;BME280;17111;52.130;5.028;2023-04-19T11:30:08;102788.72;;;21.60;39.71
30302;BME280;17111;52.130;5.028;2023-04-19T11:32:36;102783.06;;;21.63;39.69
30302;BME280;17111;52.130;5.028;2023-04-19T11:35:04;102770.28;;;21.65;39.70
30302;BME280;17111;52.130;5.028;2023-04-19T11:37:37;102766.47;;;21.68;39.61
30302;BME280;17111;52.130;5.028;2023-04-19T11:40:05;102777.88;;;21.72;39.40
30302;BME280;17111;52.130;5.028;2023-04-19T11:42:32;102773.19;;;21.74;39.29
30302;BME280;17111;52.130;5.028;2023-04-19T11:44:59;102768.38;;;21.77;39.35
30302;BME280;17111;52.130;5.028;2023-04-19T11:47:26;102763.56;;;21.81;39.03
30302;BME280;17111;52.130;5.028;2023-04-19T11:49:55;102751.53;;;21.85;38.82
30302;BME280;17111;52.130;5.028;2023-04-19T11:52:25;102758.38;;;21.89;38.69
30302;BME280;17111;52.130;5.028;2023-04-19T11:54:52;102758.09;;;21.92;38.98
30302;BME280;17111;52.130;5.028;2023-04-19T11:57:29;102758.81;;;21.94;38.63
30302;BME280;17111;52.130;5.028;2023-04-19T12:00:07;102745.91;;;21.98;38.89
30302;BME280;17111;52.130;5.028;2023-04-19T12:02:42;102741.09;;;22.01;38.85
30302;BME280;17111;52.130;5.028;2023-04-19T12:05:11;102730.03;;;22.04;38.46
30302;BME280;17111;52.130;5.028;2023-04-19T12:10:23;102736.72;;;22.10;38.77
30302;BME280;17111;52.130;5.028;2023-04-19T12:12:50;102723.13;;;22.11;38.45
30302;BME280;17111;52.130;5.028;2023-04-19T12:15:16;102729.25;;;22.13;38.46
30302;BME280;17111;52.130;5.028;2023-04-19T12:17:56;102722.00;;;22.14;38.65
30302;BME280;17111;52.130;5.028;2023-04-19T12:20:34;102723.59;;;22.16;38.63
30302;BME280;17111;52.130;5.028;2023-04-19T12:23:00;102718.88;;;22.18;38.71
30302;BME280;17111;52.130;5.028;2023-04-19T12:25:32;102725.16;;;22.19;38.76
30302;BME280;17111;52.130;5.028;2023-04-19T12:28:01;102716.94;;;22.21;38.37
30302;BME280;17111;52.130;5.028;2023-04-19T12:30:28;102721.22;;;22.23;38.50
30302;BME280;17111;52.130;5.028;2023-04-19T12:32:54;102713.97;;;22.24;38.62
30302;BME280;17111;52.130;5.028;2023-04-19T12:35:22;102723.78;;;22.25;38.51
30302;BME280;17111;52.130;5.028;2023-04-19T12:37:51;102727.16;;;22.27;38.76
30302;BME280;17111;52.130;5.028;2023-04-19T12:40:17;102713.66;;;22.27;38.43
30302;BME280;17111;52.130;5.028;2023-04-19T12:42:44;102717.38;;;22.26;38.30
30302;BME280;17111;52.130;5.028;2023-04-19T12:45:11;102728.16;;;22.26;38.47
30302;BME280;17111;52.130;5.028;2023-04-19T12:47:39;102706.72;;;22.24;38.19
30302;BME280;17111;52.130;5.028;2023-04-19T12:50:07;102715.66;;;22.25;38.36
30302;BME280;17111;52.130;5.028;2023-04-19T12:52:34;102711.25;;;22.24;38.45
30302;BME280;17111;52.130;5.028;2023-04-19T12:55:01;102706.81;;;22.23;38.57
30302;BME280;17111;52.130;5.028;2023-04-19T12:57:28;102699.88;;;22.20;38.21
30302;BME280;17111;52.130;5.028;2023-04-19T12:59:55;102694.47;;;22.20;37.97
30302;BME280;17111;52.130;5.028;2023-04-19T13:02:22;102691.03;;;22.18;37.85
30302;BME280;17111;52.130;5.028;2023-04-19T13:04:49;102693.03;;;22.16;37.94
30302;BME280;17111;52.130;5.028;2023-04-19T13:07:16;102689.59;;;22.14;37.70
30302;BME280;17111;52.130;5.028;2023-04-19T13:09:43;102677.19;;;22.11;37.82
30302;BME280;17111;52.130;5.028;2023-04-19T13:12:09;102687.28;;;22.09;37.90
30302;BME280;17111;52.130;5.028;2023-04-19T13:14:36;102674.88;;;22.07;37.82